sensor_id;sensor_type;location;lat;lon;timestamp;pressure;altitude;pressure_sealevel;temperature;humidity
10392;BME280;5242;49.244;6.774;2023-04-07T00:04:04;99497.63;;;6.66;nan
10392;BME280;5242;49.244;6.774;2023-04-07T00:11:56;99512.47;;;6.60;nan
10392;BME280;5242;49.244;6.774;2023-04-07T00:19:48;99500.53;;;6.61;nan
10392;BME280;5242;49.244;6.774;2023-04-07T00:27:40;99484.94;;;6.58;nan
10392;BME280;5242;49.244;6.774;2023-04-07T00:35:32;99485.31;;;6.48;nan
10392;BME280;5242;49.244;6.774;2023-04-07T00:43:24;99481.75;;;6.35;nan
10392;BME280;5242;49.244;6.774;2023-04-07T00:51:18;99469.97;;;6.31;nan
10392;BME280;5242;49.244;6.774;2023-04-07T00:59:12;99461.91;;;6.22;nan
10392;BME280;5242;49.244;6.774;2023-04-07T01:07:31;99454.22;;;6.03;nan
10392;BME280;5242;49.244;6.774;2023-04-07T01:15:20;99459.19;;;5.84;nan
10392;BME280;5242;49.244;6.774;2023-04-07T01:23:21;99459.84;;;5.72;nan
10392;BME280;5242;49.244;6.774;2023-04-07T01:31:14;99457.66;;;5.65;nan
10392;BME280;5242;49.244;6.774;2023-04-07T01:39:08;99458.31;;;5.54;nan
10392;BME280;5242;49.244;6.774;2023-04-07T01:47:00;99452.13;;;5.36;nan
10392;BME280;5242;49.244;6.774;2023-04-07T01:54:53;99439.78;;;5.09;nan
10392;BME280;5242;49.244;6.774;2023-04-07T02:02:47;99446.59;;;4.80;nan
10392;BME280;5242;49.244;6.774;2023-04-07T02:10:40;99432.00;;;4.64;nan
10392;BME280;5242;49.244;6.774;2023-04-07T02:18:33;99426.44;;;4.51;nan
10392;BME280;5242;49.244;6.774;2023-04-07T02:26:25;99422.13;;;4.33;nan
10392;BME280;5242;49.244;6.774;2023-04-07T02:34:16;99415.41;;;4.13;nan
10392;BME280;5242;49.244;6.774;2023-04-07T02:42:08;99408.06;;;3.96;nan
10392;BME280;5242;49.244;6.774;2023-04-07T02:50:00;99416.69;;;3.76;nan
10392;BME280;5242;49.244;6.774;2023-04-07T02:57:52;99420.66;;;3.69;nan
10392;BME280;5242;49.244;6.774;2023-04-07T03:05:44;99432.19;;;3.61;nan
10392;BME280;5242;49.244;6.774;2023-04-07T03:13:36;99427.56;;;3.53;nan
10392;BME280;5242;49.244;6.774;2023-04-07T03:21:28;99432.94;;;3.53;nan
10392;BME280;5242;49.244;6.774;2023-04-07T03:29:22;99435.50;;;3.58;nan
10392;BME280;5242;49.244;6.774;2023-04-07T03:37:14;99428.56;;;3.66;nan
10392;BME280;5242;49.244;6.774;2023-04-07T03:45:06;99429.38;;;3.75;nan
10392;BME280;5242;49.244;6.774;2023-04-07T03:52:58;99436.69;;;3.83;nan
10392;BME280;5242;49.244;6.774;2023-04-07T04:00:50;99436.41;;;3.85;nan
10392;BME280;5242;49.244;6.774;2023-04-07T04:08:42;99432.59;;;3.86;nan
10392;BME280;5242;49.244;6.774;2023-04-07T04:16:33;99429.09;;;3.85;nan
10392;BME280;5242;49.244;6.774;2023-04-07T04:24:28;99422.56;;;3.78;nan
10392;BME280;5242;49.244;6.774;2023-04-07T04:32:20;99429.84;;;3.68;nan
10392;BME280;5242;49.244;6.774;2023-04-07T04:40:12;99431.56;;;3.64;nan
10392;BME280;5242;49.244;6.774;2023-04-07T04:48:05;99430.56;;;3.60;nan
10392;BME280;5242;49.244;6.774;2023-04-07T04:55:57;99427.69;;;3.48;nan
10392;BME280;5242;49.244;6.774;2023-04-07T05:03:49;99435.66;;;3.31;nan
10392;BME280;5242;49.244;6.774;2023-04-07T05:11:42;99435.94;;;3.29;nan
10392;BME280;5242;49.244;6.774;2023-04-07T05:19:34;99425.53;;;3.36;nan
10392;BME280;5242;49.244;6.774;2023-04-07T05:27:26;99419.41;;;3.44;nan
10392;BME280;5242;49.244;6.774;2023-04-07T05:35:18;99413.94;;;3.58;nan
10392;BME280;5242;49.244;6.774;2023-04-07T05:43:09;99416.91;;;3.88;nan
10392;BME280;5242;49.244;6.774;2023-04-07T05:51:02;99413.41;;;4.36;nan
10392;BME280;5242;49.244;6.774;2023-04-07T05:58:54;99419.00;;;4.83;nan
10392;BME280;5242;49.244;6.774;2023-04-07T06:06:46;99414.53;;;5.22;nan
10392;BME280;5242;49.244;6.774;2023-04-07T06:14:38;99423.00;;;5.59;nan
10392;BME280;5242;49.244;6.774;2023-04-07T06:22:30;99421.94;;;5.89;nan
10392;BME280;5242;49.244;6.774;2023-04-07T06:30:22;99444.69;;;5.88;nan
10392;BME280;5242;49.244;6.774;2023-04-07T06:38:14;99453.22;;;6.08;nan
10392;BME280;5242;49.244;6.774;2023-04-07T06:46:06;99458.19;;;6.36;nan
10392;BME280;5242;49.244;6.774;2023-04-07T06:53:58;99464.78;;;6.77;nan
10392;BME280;5242;49.244;6.774;2023-04-07T07:01:50;99460.63;;;7.21;nan
10392;BME280;5242;49.244;6.774;2023-04-07T07:09:42;99470.31;;;7.55;nan
10392;BME280;5242;49.244;6.774;2023-04-07T07:17:33;99483.81;;;7.76;nan
10392;BME280;5242;49.244;6.774;2023-04-07T07:25:26;99478.72;;;7.87;nan
10392;BME280;5242;49.244;6.774;2023-04-07T07:33:18;99477.88;;;7.95;nan
10392;BME280;5242;49.244;6.774;2023-04-07T07:41:10;99483.28;;;8.07;nan
10392;BME280;5242;49.244;6.774;2023-04-07T07:49:02;99481.16;;;8.25;nan
10392;BME280;5242;49.244;6.774;2023-04-07T07:56:55;99500.09;;;8.46;nan
10392;BME280;5242;49.244;6.774;2023-04-07T08:04:48;99506.38;;;8.75;nan
10392;BME280;5242;49.244;6.774;2023-04-07T08:12:40;99506.19;;;9.49;nan
10392;BME280;5242;49.244;6.774;2023-04-07T08:20:32;99513.84;;;10.66;nan
10392;BME280;5242;49.244;6.774;2023-04-07T08:28:25;99519.94;;;11.34;nan
10392;BME280;5242;49.244;6.774;2023-04-07T08:36:17;99517.22;;;11.15;nan
10392;BME280;5242;49.244;6.774;2023-04-07T08:44:09;99531.97;;;11.14;nan
10392;BME280;5242;49.244;6.774;2023-04-07T08:52:05;99541.31;;;11.13;nan
10392;BME280;5242;49.244;6.774;2023-04-07T09:00:01;99540.03;;;11.26;nan
10392;BME280;5242;49.244;6.774;2023-04-07T09:07:56;99546.94;;;11.59;nan
10392;BME280;5242;49.244;6.774;2023-04-07T09:15:48;99542.31;;;11.82;nan
10392;BME280;5242;49.244;6.774;2023-04-07T09:23:41;99556.69;;;11.79;nan
10392;BME280;5242;49.244;6.774;2023-04-07T09:31:44;99556.19;;;11.54;nan
10392;BME280;5242;49.244;6.774;2023-04-07T09:39:48;99560.69;;;11.27;nan
10392;BME280;5242;49.244;6.774;2023-04-07T09:47:41;99563.41;;;11.07;nan
10392;BME280;5242;49.244;6.774;2023-04-07T09:55:34;99564.41;;;10.83;nan
10392;BME280;5242;49.244;6.774;2023-04-07T10:03:28;99575.44;;;10.71;nan
10392;BME280;5242;49.244;6.774;2023-04-07T10:11:20;99572.31;;;10.73;nan
10392;BME280;5242;49.244;6.774;2023-04-07T10:19:13;99575.91;;;10.93;nan
10392;BME280;5242;49.244;6.774;2023-04-07T10:27:08;99575.59;;;11.14;nan
10392;BME280;5242;49.244;6.774;2023-04-07T10:35:02;99586.81;;;11.28;nan
10392;BME280;5242;49.244;6.774;2023-04-07T10:42:54;99577.31;;;11.22;nan
10392;BME280;5242;49.244;6.774;2023-04-07T10:59:13;99589.03;;;11.22;nan
10392;BME280;5242;49.244;6.774;2023-04-07T11:07:06;99584.81;;;11.09;nan
10392;BME280;5242;49.244;6.774;2023-04-07T11:15:15;99586.53;;;11.52;nan
10392;BME280;5242;49.244;6.774;2023-04-07T11:23:08;99583.09;;;11.75;nan
10392;BME280;5242;49.244;6.774;2023-04-07T11:31:00;99585.72;;;11.87;nan
10392;BME280;5242;49.244;6.774;2023-04-07T11:38:52;99587.22;;;12.27;nan
10392;BME280;5242;49.244;6.774;2023-04-07T11:46:54;99578.59;;;12.25;nan
10392;BME280;5242;49.244;6.774;2023-04-07T11:54:47;99590.25;;;12.22;nan
10392;BME280;5242;49.244;6.774;2023-04-07T12:02:41;99581.75;;;13.00;nan
10392;BME280;5242;49.244;6.774;2023-04-07T12:10:33;99572.84;;;15.56;nan
10392;BME280;5242;49.244;6.774;2023-04-07T12:18:27;99572.19;;;17.42;nan
10392;BME280;5242;49.244;6.774;2023-04-07T12:26:19;99575.41;;;17.19;nan
10392;BME280;5242;49.244;6.774;2023-04-07T12:34:14;99565.06;;;17.51;nan
10392;BME280;5242;49.244;6.774;2023-04-07T12:42:06;99569.97;;;17.99;nan
10392;BME280;5242;49.244;6.774;2023-04-07T12:50:02;99559.28;;;18.09;nan
10392;BME280;5242;49.244;6.774;2023-04-07T12:57:54;99562.34;;;17.44;nan
10392;BME280;5242;49.244;6.774;2023-04-07T13:05:46;99559.16;;;17.46;nan
10392;BME280;5242;49.244;6.774;2023-04-07T13:13:39;99564.31;;;18.21;nan
10392;BME280;5242;49.244;6.774;2023-04-07T13:21:31;99566.78;;;16.84;nan
10392;BME280;5242;49.244;6.774;2023-04-07T13:29:25;99579.09;;;15.53;nan
10392;BME280;5242;49.244;6.774;2023-04-07T13:37:17;99572.16;;;15.00;nan
10392;BME280;5242;49.244;6.774;2023-04-07T13:45:10;99573.41;;;15.10;nan
10392;BME280;5242;49.244;6.774;2023-04-07T13:53:02;99567.53;;;15.95;nan
10392;BME280;5242;49.244;6.774;2023-04-07T14:00:54;99575.94;;;15.47;nan
10392;BME280;5242;49.244;6.774;2023-04-07T14:08:48;99588.16;;;14.05;nan
10392;BME280;5242;49.244;6.774;2023-04-07T14:16:40;99607.22;;;13.04;nan
10392;BME280;5242;49.244;6.774;2023-04-07T14:24:32;99609.22;;;11.57;nan
10392;BME280;5242;49.244;6.774;2023-04-07T14:32:24;99613.38;;;10.48;nan
10392;BME280;5242;49.244;6.774;2023-04-07T14:40:16;99602.25;;;9.97;nan
10392;BME280;5242;49.244;6.774;2023-04-07T14:48:07;99589.47;;;9.97;nan
10392;BME280;5242;49.244;6.774;2023-04-07T14:56:03;99585.59;;;10.42;nan
10392;BME280;5242;49.244;6.774;2023-04-07T15:03:55;99585.09;;;10.69;nan
10392;BME280;5242;49.244;6.774;2023-04-07T15:11:49;99593.25;;;10.84;nan
10392;BME280;5242;49.244;6.774;2023-04-07T15:19:41;99594.47;;;10.87;nan
10392;BME280;5242;49.244;6.774;2023-04-07T15:27:33;99602.41;;;11.12;nan
10392;BME280;5242;49.244;6.774;2023-04-07T15:35:25;99606.34;;;11.30;nan
10392;BME280;5242;49.244;6.774;2023-04-07T15:43:17;99591.56;;;11.31;nan
10392;BME280;5242;49.244;6.774;2023-04-07T15:51:09;99591.50;;;11.12;nan
10392;BME280;5242;49.244;6.774;2023-04-07T15:59:01;99603.56;;;11.10;nan
10392;BME280;5242;49.244;6.774;2023-04-07T16:06:53;99613.91;;;11.21;nan
10392;BME280;5242;49.244;6.774;2023-04-07T16:14:45;99617.31;;;11.34;nan
10392;BME280;5242;49.244;6.774;2023-04-07T16:22:37;99616.81;;;11.47;nan
10392;BME280;5242;49.244;6.774;2023-04-07T16:30:29;99619.00;;;11.77;nan
10392;BME280;5242;49.244;6.774;2023-04-07T16:38:20;99616.84;;;12.25;nan
10392;BME280;5242;49.244;6.774;2023-04-07T16:46:13;99623.75;;;12.65;nan
10392;BME280;5242;49.244;6.774;2023-04-07T16:54:05;99635.66;;;12.76;nan
10392;BME280;5242;49.244;6.774;2023-04-07T17:01:57;99639.44;;;12.68;nan
10392;BME280;5242;49.244;6.774;2023-04-07T17:09:49;99649.25;;;12.50;nan
10392;BME280;5242;49.244;6.774;2023-04-07T17:17:41;99659.97;;;11.96;nan
10392;BME280;5242;49.244;6.774;2023-04-07T17:25:32;99683.44;;;11.46;nan
10392;BME280;5242;49.244;6.774;2023-04-07T17:33:24;99700.66;;;10.99;nan
10392;BME280;5242;49.244;6.774;2023-04-07T17:41:16;99717.84;;;10.72;nan
10392;BME280;5242;49.244;6.774;2023-04-07T17:49:09;99728.16;;;10.50;nan
10392;BME280;5242;49.244;6.774;2023-04-07T17:57:01;99735.28;;;10.27;nan
10392;BME280;5242;49.244;6.774;2023-04-07T18:04:54;99757.78;;;10.11;nan
10392;BME280;5242;49.244;6.774;2023-04-07T18:12:48;99762.38;;;9.95;nan
10392;BME280;5242;49.244;6.774;2023-04-07T18:20:39;99775.53;;;9.80;nan
10392;BME280;5242;49.244;6.774;2023-04-07T18:28:33;99788.91;;;9.61;nan
10392;BME280;5242;49.244;6.774;2023-04-07T18:36:25;99797.19;;;9.52;nan
10392;BME280;5242;49.244;6.774;2023-04-07T18:44:17;99799.56;;;9.42;nan
10392;BME280;5242;49.244;6.774;2023-04-07T18:52:09;99812.91;;;9.22;nan
10392;BME280;5242;49.244;6.774;2023-04-07T19:00:01;99818.75;;;9.12;nan
10392;BME280;5242;49.244;6.774;2023-04-07T19:07:54;99829.81;;;8.95;nan
10392;BME280;5242;49.244;6.774;2023-04-07T19:15:46;99838.19;;;8.68;nan
10392;BME280;5242;49.244;6.774;2023-04-07T19:23:38;99850.34;;;8.50;nan
10392;BME280;5242;49.244;6.774;2023-04-07T19:31:32;99864.47;;;8.35;nan
10392;BME280;5242;49.244;6.774;2023-04-07T19:39:24;99869.22;;;8.17;nan
10392;BME280;5242;49.244;6.774;2023-04-07T19:47:16;99875.59;;;7.91;nan
10392;BME280;5242;49.244;6.774;2023-04-07T19:55:08;99887.03;;;7.67;nan
10392;BME280;5242;49.244;6.774;2023-04-07T20:03:02;99894.94;;;7.34;nan
10392;BME280;5242;49.244;6.774;2023-04-07T20:10:57;99892.78;;;7.01;nan
10392;BME280;5242;49.244;6.774;2023-04-07T20:18:50;99914.59;;;6.79;nan
10392;BME280;5242;49.244;6.774;2023-04-07T20:26:42;99913.78;;;6.61;nan
10392;BME280;5242;49.244;6.774;2023-04-07T20:34:34;99919.19;;;6.35;nan
10392;BME280;5242;49.244;6.774;2023-04-07T20:42:26;99920.25;;;6.16;nan
10392;BME280;5242;49.244;6.774;2023-04-07T20:50:18;99925.47;;;6.04;nan
10392;BME280;5242;49.244;6.774;2023-04-07T20:58:10;99934.91;;;5.93;nan
10392;BME280;5242;49.244;6.774;2023-04-07T21:06:02;99940.88;;;5.72;nan
10392;BME280;5242;49.244;6.774;2023-04-07T21:13:55;99933.78;;;5.54;nan
10392;BME280;5242;49.244;6.774;2023-04-07T21:21:47;99929.78;;;5.42;nan
10392;BME280;5242;49.244;6.774;2023-04-07T21:29:39;99942.88;;;5.27;nan
10392;BME280;5242;49.244;6.774;2023-04-07T21:37:33;99935.66;;;4.99;nan
10392;BME280;5242;49.244;6.774;2023-04-07T21:45:25;99932.31;;;4.80;nan
10392;BME280;5242;49.244;6.774;2023-04-07T21:53:17;99928.97;;;4.74;nan
10392;BME280;5242;49.244;6.774;2023-04-07T22:01:09;99949.38;;;4.67;nan
10392;BME280;5242;49.244;6.774;2023-04-07T22:09:01;99950.38;;;4.57;nan
10392;BME280;5242;49.244;6.774;2023-04-07T22:16:53;99956.00;;;4.47;nan
10392;BME280;5242;49.244;6.774;2023-04-07T22:24:45;99963.59;;;4.31;nan
10392;BME280;5242;49.244;6.774;2023-04-07T22:32:37;99968.19;;;4.17;nan
10392;BME280;5242;49.244;6.774;2023-04-07T22:40:29;99979.59;;;4.00;nan
10392;BME280;5242;49.244;6.774;2023-04-07T22:48:21;99991.13;;;3.73;nan
10392;BME280;5242;49.244;6.774;2023-04-07T22:56:13;99991.69;;;3.56;nan
10392;BME280;5242;49.244;6.774;2023-04-07T23:04:04;99997.28;;;3.59;nan
10392;BME280;5242;49.244;6.774;2023-04-07T23:11:57;99992.13;;;3.77;nan
10392;BME280;5242;49.244;6.774;2023-04-07T23:19:49;99992.38;;;3.94;nan
10392;BME280;5242;49.244;6.774;2023-04-07T23:27:40;99989.56;;;3.99;nan
10392;BME280;5242;49.244;6.774;2023-04-07T23:35:33;100006.22;;;3.87;nan
10392;BME280;5242;49.244;6.774;2023-04-07T23:43:25;100008.84;;;3.60;nan
10392;BME280;5242;49.244;6.774;2023-04-07T23:51:17;100013.94;;;3.61;nan
10392;BME280;5242;49.244;6.774;2023-04-07T23:59:09;100013.47;;;3.73;nan
